createdAt,value
2018-03-20T00:00:32.818Z,41.03
2018-03-20T00:01:36.221Z,41.10
2018-03-20T00:02:39.543Z,41.19
2018-03-20T00:03:42.940Z,41.22
2018-03-20T00:04:46.349Z,41.26
2018-03-20T00:05:49.667Z,41.30
2018-03-20T00:06:53.016Z,41.37
2018-03-20T00:07:57.584Z,41.41
2018-03-20T00:09:00.879Z,41.45
2018-03-20T00:10:04.218Z,41.51
2018-03-20T00:11:07.531Z,41.56
2018-03-20T00:12:12.111Z,41.59
2018-03-20T00:13:16.237Z,41.64
2018-03-20T00:14:19.680Z,41.68
2018-03-20T00:15:23.063Z,41.71
2018-03-20T00:16:26.424Z,41.73
2018-03-20T00:17:29.760Z,41.79
2018-03-20T00:18:33.070Z,41.91
2018-03-20T00:19:36.514Z,42.05
2018-03-20T00:20:39.996Z,42.25
2018-03-20T00:21:43.293Z,42.36
2018-03-20T00:22:46.659Z,42.49
2018-03-20T00:23:49.988Z,42.63
2018-03-20T00:24:53.329Z,42.71
2018-03-20T00:25:56.668Z,42.81
2018-03-20T00:27:01.053Z,42.88
2018-03-20T00:28:04.381Z,42.89
2018-03-20T00:29:07.847Z,42.95
2018-03-20T00:30:11.910Z,42.92
2018-03-20T00:31:15.280Z,42.93
2018-03-20T00:32:18.634Z,42.96
2018-03-20T00:33:21.970Z,42.92
2018-03-20T00:34:25.277Z,42.89
2018-03-20T00:35:29.457Z,42.96
2018-03-20T00:36:32.776Z,42.94
2018-03-20T00:37:36.093Z,42.90
2018-03-20T00:38:39.428Z,42.88
2018-03-20T00:39:42.796Z,42.88
2018-03-20T00:40:46.102Z,42.84
2018-03-20T00:41:49.457Z,42.87
2018-03-20T00:42:52.840Z,42.96
2018-03-20T00:43:56.162Z,43.04
2018-03-20T00:44:59.515Z,43.11
2018-03-20T00:46:02.824Z,43.14
2018-03-20T00:47:07.048Z,43.21
2018-03-20T00:48:10.473Z,43.28
2018-03-20T00:49:13.767Z,43.38
2018-03-20T00:50:17.106Z,43.47
2018-03-20T00:51:20.419Z,43.56
2018-03-20T00:52:23.977Z,43.62
2018-03-20T00:53:27.294Z,43.73
2018-03-20T00:54:30.640Z,43.84
2018-03-20T00:55:34.212Z,43.88
2018-03-20T00:56:38.002Z,43.95
2018-03-20T00:57:42.233Z,44.01
2018-03-20T00:58:45.547Z,44.06
2018-03-20T00:59:48.861Z,44.11
2018-03-20T01:00:52.282Z,44.18
2018-03-20T01:01:56.504Z,44.22
2018-03-20T01:03:00.987Z,44.27
2018-03-20T01:04:06.087Z,44.32
2018-03-20T01:05:09.392Z,44.37
2018-03-20T01:06:12.701Z,44.43
2018-03-20T01:07:16.235Z,44.49
2018-03-20T01:08:21.258Z,44.54
2018-03-20T01:09:24.646Z,44.60
2018-03-20T01:10:28.005Z,44.67
2018-03-20T01:11:32.126Z,44.77
2018-03-20T01:12:35.441Z,44.86
2018-03-20T01:13:38.833Z,44.97
2018-03-20T01:14:42.220Z,45.09
2018-03-20T01:15:45.853Z,45.18
2018-03-20T01:16:49.200Z,45.27
2018-03-20T01:17:52.520Z,45.33
2018-03-20T01:18:55.883Z,45.37
2018-03-20T01:19:59.209Z,45.40
2018-03-20T01:21:02.549Z,45.42
2018-03-20T01:22:05.874Z,45.41
2018-03-20T01:23:09.275Z,45.41
2018-03-20T01:24:12.678Z,45.39
2018-03-20T01:25:16.063Z,45.38
2018-03-20T01:26:19.433Z,45.34
2018-03-20T01:27:22.749Z,45.34
2018-03-20T01:28:26.158Z,45.31
2018-03-20T01:29:29.517Z,45.29
2018-03-20T01:30:32.893Z,45.27
2018-03-20T01:31:36.188Z,45.27
2018-03-20T01:32:39.576Z,45.27
2018-03-20T01:33:42.930Z,45.26
2018-03-20T01:34:46.251Z,45.28
2018-03-20T01:35:49.565Z,45.28
2018-03-20T01:36:53.741Z,45.28
2018-03-20T01:37:57.032Z,45.27
2018-03-20T01:39:00.365Z,45.26
2018-03-20T01:40:03.709Z,45.25
2018-03-20T01:41:07.117Z,45.26
2018-03-20T01:42:11.282Z,45.24
2018-03-20T01:43:14.674Z,45.25
2018-03-20T01:44:18.921Z,45.25
2018-03-20T01:45:22.316Z,45.25
2018-03-20T01:46:25.632Z,45.27
2018-03-20T01:47:28.984Z,45.28
2018-03-20T01:48:32.280Z,45.31
2018-03-20T01:49:35.633Z,45.33
2018-03-20T01:50:38.972Z,45.37
2018-03-20T01:51:42.320Z,45.40
2018-03-20T01:52:46.164Z,45.46
2018-03-20T01:53:49.463Z,45.51
2018-03-20T01:54:53.193Z,45.58
2018-03-20T01:55:56.512Z,45.60
2018-03-20T01:56:59.912Z,45.64
2018-03-20T01:58:03.265Z,45.67
2018-03-20T01:59:06.633Z,45.72
2018-03-20T02:00:10.057Z,45.77
2018-03-20T02:01:13.495Z,45.83
2018-03-20T02:02:16.902Z,45.90
2018-03-20T02:03:20.286Z,45.96
2018-03-20T02:04:23.641Z,46.01
2018-03-20T02:05:27.040Z,46.08
2018-03-20T02:06:30.369Z,46.13
2018-03-20T02:07:33.729Z,46.17
2018-03-20T02:08:37.837Z,46.22
2018-03-20T02:09:41.217Z,46.30
2018-03-20T02:10:44.580Z,46.31
2018-03-20T02:11:47.978Z,46.30
2018-03-20T02:12:51.322Z,46.29
2018-03-20T02:13:54.624Z,46.26
2018-03-20T02:14:57.963Z,46.23
2018-03-20T02:16:01.260Z,46.12
2018-03-20T02:17:05.064Z,46.05
2018-03-20T02:18:08.473Z,45.95
2018-03-20T02:19:12.155Z,45.82
2018-03-20T02:20:15.469Z,45.68
2018-03-20T02:21:18.818Z,45.57
2018-03-20T02:22:22.228Z,45.48
2018-03-20T02:23:25.572Z,45.41
2018-03-20T02:24:28.977Z,45.33
2018-03-20T02:25:32.427Z,45.28
2018-03-20T02:26:36.472Z,45.22
2018-03-20T02:27:40.450Z,45.17
2018-03-20T02:28:43.776Z,45.12
2018-03-20T02:29:47.062Z,45.05
2018-03-20T02:30:51.222Z,45.02
2018-03-20T02:31:54.649Z,44.95
2018-03-20T02:32:58.042Z,44.90
2018-03-20T02:34:01.353Z,44.83
2018-03-20T02:35:04.648Z,44.81
2018-03-20T02:36:07.970Z,44.74
2018-03-20T02:37:11.371Z,44.67
2018-03-20T02:38:14.835Z,44.59
2018-03-20T02:39:18.340Z,44.55
2018-03-20T02:40:21.642Z,44.49
2018-03-20T02:41:25.014Z,44.42
2018-03-20T02:42:28.400Z,44.40
2018-03-20T02:43:31.883Z,44.35
2018-03-20T02:44:35.229Z,44.33
2018-03-20T02:45:38.544Z,44.29
2018-03-20T02:46:42.656Z,44.25
2018-03-20T02:47:45.984Z,44.24
2018-03-20T02:48:49.332Z,44.21
2018-03-20T02:49:52.714Z,44.17
2018-03-20T02:50:56.040Z,44.18
2018-03-20T02:51:59.374Z,44.15
2018-03-20T02:53:03.644Z,44.08
2018-03-20T02:54:07.014Z,44.06
2018-03-20T02:55:10.542Z,44.06
2018-03-20T02:56:13.964Z,44.10
2018-03-20T02:57:17.332Z,44.11
2018-03-20T02:58:20.674Z,44.09
2018-03-20T02:59:24.094Z,44.07
2018-03-20T03:00:27.553Z,44.06
2018-03-20T03:01:30.950Z,44.10
2018-03-20T03:02:34.271Z,44.12
2018-03-20T03:03:38.470Z,44.13
2018-03-20T03:04:41.947Z,44.15
2018-03-20T03:05:45.281Z,44.15
2018-03-20T03:06:48.576Z,44.18
2018-03-20T03:07:51.995Z,44.21
2018-03-20T03:08:56.272Z,44.28
2018-03-20T03:09:59.649Z,44.37
2018-03-20T03:11:02.968Z,44.43
2018-03-20T03:12:06.309Z,44.47
2018-03-20T03:13:09.631Z,44.52
2018-03-20T03:14:12.949Z,44.57
2018-03-20T03:15:16.399Z,44.62
2018-03-20T03:16:19.775Z,44.69
2018-03-20T03:17:23.060Z,44.72
2018-03-20T03:18:26.373Z,44.75
2018-03-20T03:19:29.815Z,44.79
2018-03-20T03:20:33.206Z,44.82
2018-03-20T03:21:36.610Z,44.85
2018-03-20T03:22:39.937Z,44.88
2018-03-20T03:23:43.361Z,44.93
2018-03-20T03:24:46.759Z,44.97
2018-03-20T03:25:50.107Z,45.02
2018-03-20T03:26:53.479Z,45.09
2018-03-20T03:27:56.866Z,45.16
2018-03-20T03:29:00.950Z,45.22
2018-03-20T03:30:04.302Z,45.28
2018-03-20T03:31:07.723Z,45.34
2018-03-20T03:32:10.992Z,45.39
2018-03-20T03:33:14.302Z,45.43
2018-03-20T03:34:17.768Z,45.49
2018-03-20T03:35:21.092Z,45.56
2018-03-20T03:36:24.787Z,45.65
2018-03-20T03:37:28.146Z,45.70
2018-03-20T03:38:31.410Z,45.78
2018-03-20T03:39:34.724Z,45.86
2018-03-20T03:40:38.292Z,45.96
2018-03-20T03:41:41.741Z,46.05
2018-03-20T03:42:45.055Z,46.19
2018-03-20T03:43:48.433Z,46.34
2018-03-20T03:44:51.780Z,46.45
2018-03-20T03:45:55.166Z,46.53
2018-03-20T03:46:59.595Z,46.66
2018-03-20T03:48:02.934Z,46.85
2018-03-20T03:49:06.243Z,46.93
2018-03-20T03:50:09.659Z,47.02
2018-03-20T03:51:12.971Z,47.13
2018-03-20T03:52:16.399Z,47.24
2018-03-20T03:53:19.779Z,47.36
2018-03-20T03:54:23.171Z,47.47
2018-03-20T03:55:26.544Z,47.65
2018-03-20T03:56:29.858Z,47.73
2018-03-20T03:57:33.262Z,47.80
2018-03-20T03:58:36.601Z,47.87
2018-03-20T03:59:41.562Z,47.92
2018-03-20T04:00:44.898Z,47.98
2018-03-20T04:01:49.122Z,48.03
2018-03-20T04:02:52.491Z,48.07
2018-03-20T04:03:55.820Z,48.08
2018-03-20T04:04:59.129Z,48.09
2018-03-20T04:06:02.444Z,48.13
2018-03-20T04:07:05.780Z,48.17
2018-03-20T04:08:09.135Z,48.21
2018-03-20T04:09:14.268Z,48.26
2018-03-20T04:10:17.624Z,48.38
2018-03-20T04:11:20.915Z,48.46
2018-03-20T04:12:24.460Z,48.54
2018-03-20T04:13:27.930Z,48.59
2018-03-20T04:14:31.333Z,48.63
2018-03-20T04:15:34.657Z,48.69
2018-03-20T04:16:38.016Z,48.75
2018-03-20T04:17:41.384Z,48.81
2018-03-20T04:18:44.717Z,48.89
2018-03-20T04:19:48.071Z,48.98
2018-03-20T04:20:51.413Z,49.08
2018-03-20T04:21:54.746Z,49.13
2018-03-20T04:22:58.131Z,49.19
2018-03-20T04:24:01.491Z,49.28
2018-03-20T04:25:04.801Z,49.38
2018-03-20T04:26:08.185Z,49.47
2018-03-20T04:27:11.580Z,49.59
2018-03-20T04:28:14.936Z,49.75
2018-03-20T04:29:18.347Z,49.92
2018-03-20T04:30:21.806Z,50.10
2018-03-20T04:31:25.257Z,50.30
2018-03-20T04:32:28.636Z,50.53
2018-03-20T04:33:31.960Z,50.78
2018-03-20T04:34:35.305Z,50.97
2018-03-20T04:35:38.642Z,51.22
2018-03-20T04:36:42.055Z,51.48
2018-03-20T04:37:45.523Z,51.69
2018-03-20T04:38:48.864Z,52.00
2018-03-20T04:39:52.312Z,52.33
2018-03-20T04:40:55.796Z,52.60
2018-03-20T04:41:59.151Z,52.84
2018-03-20T04:43:02.468Z,53.17
2018-03-20T04:44:05.827Z,53.50
2018-03-20T04:45:09.214Z,53.79
2018-03-20T04:46:12.690Z,54.08
2018-03-20T04:47:16.084Z,54.33
2018-03-20T04:48:19.429Z,54.60
2018-03-20T04:49:23.709Z,54.81
2018-03-20T04:50:27.040Z,55.03
2018-03-20T04:51:30.380Z,55.26
2018-03-20T04:52:33.688Z,55.50
2018-03-20T04:53:37.006Z,55.68
2018-03-20T04:54:41.065Z,55.90
2018-03-20T04:55:44.545Z,56.08
2018-03-20T04:56:47.838Z,56.23
2018-03-20T04:57:51.249Z,56.39
2018-03-20T04:58:54.592Z,56.50
2018-03-20T04:59:57.945Z,56.67
2018-03-20T05:01:01.336Z,56.88
2018-03-20T05:02:04.649Z,57.05
2018-03-20T05:03:08.092Z,57.23
2018-03-20T05:04:11.484Z,57.33
2018-03-20T05:05:14.857Z,57.44
2018-03-20T05:06:18.192Z,57.58
2018-03-20T05:07:21.495Z,57.66
2018-03-20T05:08:24.833Z,57.74
2018-03-20T05:09:29.082Z,57.90
2018-03-20T05:10:32.462Z,58.01
2018-03-20T05:11:35.820Z,58.16
2018-03-20T05:12:39.193Z,58.28
2018-03-20T05:13:42.517Z,58.37
2018-03-20T05:14:45.892Z,58.47
2018-03-20T05:15:49.332Z,58.56
2018-03-20T05:16:52.751Z,58.66
2018-03-20T05:17:56.733Z,58.71
2018-03-20T05:19:05.712Z,58.80
2018-03-20T05:20:14.518Z,58.87
2018-03-20T05:21:24.167Z,58.93
2018-03-20T05:22:33.140Z,59.03
2018-03-20T05:23:39.091Z,59.15
2018-03-20T05:24:42.410Z,59.32
2018-03-20T05:25:45.844Z,59.41
2018-03-20T05:26:49.143Z,59.56
2018-03-20T05:27:52.532Z,59.73
2018-03-20T05:28:55.975Z,59.77
2018-03-20T05:29:59.333Z,59.91
2018-03-20T05:31:02.685Z,60.05
2018-03-20T05:32:06.230Z,60.14
2018-03-20T05:33:09.571Z,60.17
2018-03-20T05:34:13.107Z,60.24
2018-03-20T05:35:16.560Z,60.25
2018-03-20T05:36:19.960Z,60.38
2018-03-20T05:37:23.331Z,60.45
2018-03-20T05:38:26.781Z,60.50
2018-03-20T05:39:30.136Z,60.55
2018-03-20T05:40:33.728Z,60.62
2018-03-20T05:41:37.064Z,60.72
2018-03-20T05:42:40.631Z,60.77
2018-03-20T05:43:44.072Z,60.88
2018-03-20T05:44:48.381Z,60.92
2018-03-20T05:45:51.817Z,60.99
2018-03-20T05:47:02.545Z,61.02
2018-03-20T05:49:57.406Z,61.18
2018-03-20T05:52:40.797Z,61.26
2018-03-20T05:53:44.188Z,61.30
2018-03-20T05:54:47.689Z,61.34
2018-03-20T05:55:51.431Z,61.38
2018-03-20T05:56:55.016Z,61.47
2018-03-20T05:57:58.456Z,61.51
2018-03-20T05:59:01.833Z,61.61
2018-03-20T06:00:05.198Z,61.66
2018-03-20T06:01:08.615Z,61.72
2018-03-20T06:02:12.035Z,61.81
2018-03-20T06:03:15.321Z,61.89
2018-03-20T06:04:18.650Z,61.98
2018-03-20T06:05:22.222Z,62.10
2018-03-20T06:06:25.645Z,62.15
2018-03-20T06:07:29.127Z,62.20
2018-03-20T06:08:32.468Z,62.27
2018-03-20T06:09:35.863Z,62.38
2018-03-20T06:10:39.199Z,62.52
2018-03-20T06:11:42.668Z,62.68
2018-03-20T06:12:46.891Z,62.81
2018-03-20T06:13:50.303Z,62.93
2018-03-20T06:14:54.387Z,63.02
2018-03-20T06:15:57.801Z,63.15
2018-03-20T06:17:01.150Z,63.27
2018-03-20T06:18:04.481Z,63.36
2018-03-20T06:19:08.712Z,63.45
2018-03-20T06:20:12.047Z,63.56
2018-03-20T06:21:15.458Z,63.65
2018-03-20T06:22:18.884Z,63.67
2018-03-20T06:23:23.097Z,63.74
2018-03-20T06:24:26.407Z,63.89
2018-03-20T06:25:29.708Z,64.01
2018-03-20T06:26:33.188Z,64.10
2018-03-20T06:27:36.615Z,64.12
2018-03-20T06:28:40.009Z,64.18
2018-03-20T06:29:43.387Z,64.31
2018-03-20T06:30:46.790Z,64.36
2018-03-20T06:31:50.148Z,64.38
2018-03-20T06:32:53.580Z,64.41
2018-03-20T06:33:56.896Z,64.48
2018-03-20T06:35:00.578Z,64.55
2018-03-20T06:36:03.909Z,64.62
2018-03-20T06:37:08.829Z,64.75
2018-03-20T06:38:12.696Z,64.76
2018-03-20T06:39:16.133Z,64.75
2018-03-20T06:40:19.490Z,64.74
2018-03-20T06:41:22.826Z,64.74
2018-03-20T06:42:26.180Z,64.68
2018-03-20T06:43:29.509Z,64.73
2018-03-20T06:44:32.869Z,64.79
2018-03-20T06:45:36.277Z,64.83
2018-03-20T06:46:39.595Z,64.90
2018-03-20T06:47:43.062Z,64.93
2018-03-20T06:48:46.871Z,65.00
2018-03-20T06:49:50.474Z,65.12
2018-03-20T06:50:53.790Z,65.19
2018-03-20T06:51:57.317Z,65.24
2018-03-20T06:53:00.632Z,65.24
2018-03-20T06:54:04.025Z,65.29
2018-03-20T06:55:07.356Z,65.37
2018-03-20T06:56:10.843Z,65.45
2018-03-20T06:57:14.192Z,65.47
2018-03-20T06:58:17.599Z,65.51
2018-03-20T06:59:22.026Z,65.55
2018-03-20T07:00:26.038Z,65.60
2018-03-20T07:01:29.451Z,65.66
2018-03-20T07:02:32.794Z,65.72
2018-03-20T07:03:36.172Z,65.75
2018-03-20T07:04:39.533Z,65.83
2018-03-20T07:05:43.972Z,65.81
2018-03-20T07:06:47.373Z,65.87
2018-03-20T07:07:50.721Z,65.94
2018-03-20T07:08:54.231Z,66.00
2018-03-20T07:09:58.526Z,66.10
2018-03-20T07:11:01.845Z,66.18
2018-03-20T07:12:05.191Z,66.21
2018-03-20T07:13:08.573Z,66.28
2018-03-20T07:14:11.888Z,66.29
2018-03-20T07:15:15.257Z,66.31
2018-03-20T07:16:18.579Z,66.36
2018-03-20T07:17:22.029Z,66.46
2018-03-20T07:18:25.428Z,66.53
2018-03-20T07:19:28.757Z,66.58
2018-03-20T07:20:32.105Z,66.62
2018-03-20T07:21:36.213Z,66.68
2018-03-20T07:22:39.526Z,66.73
2018-03-20T07:23:42.878Z,66.84
2018-03-20T07:24:46.224Z,66.93
2018-03-20T07:25:50.138Z,67.05
2018-03-20T07:26:53.505Z,67.13
2018-03-20T07:27:56.846Z,67.21
2018-03-20T07:29:00.212Z,67.27
2018-03-20T07:30:03.537Z,67.29
2018-03-20T07:31:06.879Z,67.33
2018-03-20T07:32:10.224Z,67.35
2018-03-20T07:33:14.165Z,67.41
2018-03-20T07:34:17.975Z,67.48
2018-03-20T07:35:22.699Z,67.49
2018-03-20T07:36:28.090Z,67.50
2018-03-20T07:37:31.555Z,67.54
2018-03-20T07:38:36.399Z,67.58
2018-03-20T07:39:40.746Z,67.55
2018-03-20T07:40:44.144Z,67.57
2018-03-20T07:41:47.597Z,67.60
2018-03-20T07:42:50.950Z,67.65
2018-03-20T07:43:54.370Z,67.73
2018-03-20T07:44:57.737Z,67.72
2018-03-20T07:46:01.049Z,67.71
2018-03-20T07:47:04.449Z,67.77
2018-03-20T07:48:07.739Z,67.79
2018-03-20T07:49:11.073Z,67.79
2018-03-20T07:50:14.448Z,67.86
2018-03-20T07:51:17.992Z,67.93
2018-03-20T07:52:21.507Z,67.95
2018-03-20T07:53:24.812Z,67.97
2018-03-20T07:54:28.631Z,68.00
2018-03-20T07:55:31.953Z,68.07
2018-03-20T07:56:35.321Z,68.07
2018-03-20T07:57:38.756Z,68.07
2018-03-20T07:58:42.149Z,68.12
2018-03-20T07:59:46.147Z,68.16
2018-03-20T08:00:49.482Z,68.23
2018-03-20T08:01:54.204Z,68.25
2018-03-20T08:02:57.680Z,68.34
2018-03-20T08:04:01.869Z,68.43
2018-03-20T08:05:05.249Z,68.48
2018-03-20T08:06:08.600Z,68.54
2018-03-20T08:07:12.560Z,68.66
2018-03-20T08:08:16.003Z,68.63
2018-03-20T08:09:19.346Z,68.64
2018-03-20T08:10:22.887Z,68.67
2018-03-20T08:11:26.176Z,68.65
2018-03-20T08:12:29.492Z,68.65
2018-03-20T08:13:32.928Z,68.71
2018-03-20T08:14:36.232Z,68.79
2018-03-20T08:15:39.778Z,68.83
2018-03-20T08:16:43.268Z,68.82
2018-03-20T08:17:46.613Z,68.76
2018-03-20T08:18:49.998Z,68.77
2018-03-20T08:19:53.450Z,68.80
2018-03-20T08:20:56.751Z,68.76
2018-03-20T08:22:00.107Z,68.69
2018-03-20T08:23:03.448Z,68.54
2018-03-20T08:24:06.881Z,68.46
2018-03-20T08:25:10.273Z,68.46
2018-03-20T08:26:13.583Z,68.50
2018-03-20T08:27:16.896Z,68.53
2018-03-20T08:28:20.236Z,68.52
2018-03-20T08:29:24.569Z,68.52
2018-03-20T08:30:28.000Z,68.54
2018-03-20T08:31:31.331Z,68.56
2018-03-20T08:32:34.795Z,68.62
2018-03-20T08:33:38.173Z,68.75
2018-03-20T08:34:42.370Z,68.81
2018-03-20T08:35:45.766Z,68.85
2018-03-20T08:36:49.091Z,68.91
2018-03-20T08:37:52.769Z,68.94
2018-03-20T08:38:56.111Z,68.96
2018-03-20T08:40:00.313Z,69.00
2018-03-20T08:41:03.690Z,69.04
2018-03-20T08:42:07.681Z,69.08
2018-03-20T08:43:11.013Z,69.10
2018-03-20T08:44:14.369Z,69.17
2018-03-20T08:45:17.814Z,69.18
2018-03-20T08:46:21.127Z,69.18
2018-03-20T08:47:24.456Z,69.17
2018-03-20T08:48:27.796Z,69.15
2018-03-20T08:49:31.143Z,69.11
2018-03-20T08:50:34.519Z,69.07
2018-03-20T08:51:37.862Z,69.07
2018-03-20T08:52:41.266Z,69.08
2018-03-20T08:53:44.613Z,69.03
2018-03-20T08:54:48.018Z,68.90
2018-03-20T08:55:51.524Z,68.80
2018-03-20T08:56:55.029Z,68.70
2018-03-20T08:57:58.382Z,68.66
2018-03-20T08:59:01.765Z,68.58
2018-03-20T09:00:05.144Z,68.52
2018-03-20T09:01:08.496Z,68.43
2018-03-20T09:02:11.813Z,68.32
2018-03-20T09:03:15.312Z,68.22
2018-03-20T09:04:18.656Z,68.12
2018-03-20T09:05:22.095Z,67.98
2018-03-20T09:06:25.715Z,67.74
2018-03-20T09:07:29.080Z,67.53
2018-03-20T09:08:32.431Z,67.36
2018-03-20T09:09:37.569Z,67.21
2018-03-20T09:10:41.459Z,67.00
2018-03-20T09:11:45.156Z,66.83
2018-03-20T09:12:48.497Z,66.68
2018-03-20T09:13:51.884Z,66.44
2018-03-20T09:14:55.237Z,66.23
2018-03-20T09:15:58.545Z,66.06
2018-03-20T09:17:01.908Z,65.84
2018-03-20T09:18:05.236Z,65.65
2018-03-20T09:19:08.637Z,65.55
2018-03-20T09:20:12.671Z,65.34
2018-03-20T09:21:15.993Z,65.29
2018-03-20T09:22:20.310Z,65.05
2018-03-20T09:23:23.636Z,64.89
2018-03-20T09:24:27.019Z,64.80
2018-03-20T09:25:30.292Z,64.75
2018-03-20T09:26:33.696Z,64.67
2018-03-20T09:27:37.029Z,64.66
2018-03-20T09:28:40.415Z,64.60
2018-03-20T09:29:43.772Z,64.59
2018-03-20T09:30:47.120Z,64.54
2018-03-20T09:31:50.480Z,64.44
2018-03-20T09:32:53.882Z,64.27
2018-03-20T09:33:57.204Z,64.18
2018-03-20T09:35:00.745Z,64.04
2018-03-20T09:36:04.057Z,63.90
2018-03-20T09:37:07.444Z,63.69
2018-03-20T09:38:10.796Z,63.28
2018-03-20T09:39:14.224Z,62.96
2018-03-20T09:40:17.524Z,62.68
2018-03-20T09:41:20.886Z,62.25
2018-03-20T09:42:24.220Z,61.97
2018-03-20T09:43:27.598Z,61.75
2018-03-20T09:44:30.942Z,61.66
2018-03-20T09:45:34.335Z,61.53
2018-03-20T09:46:38.121Z,61.47
2018-03-20T09:47:41.462Z,61.37
2018-03-20T09:48:44.869Z,61.40
2018-03-20T09:49:48.259Z,61.38
2018-03-20T09:50:51.603Z,61.30
2018-03-20T09:51:55.026Z,61.19
2018-03-20T09:52:59.222Z,60.70
2018-03-20T09:54:02.605Z,60.19
2018-03-20T09:55:05.896Z,59.86
2018-03-20T09:56:10.355Z,59.70
2018-03-20T09:57:13.728Z,59.50
2018-03-20T09:58:17.109Z,59.44
2018-03-20T09:59:20.809Z,59.26
2018-03-20T10:00:24.197Z,59.02
2018-03-20T10:01:27.531Z,58.52
2018-03-20T10:02:30.885Z,58.15
2018-03-20T10:03:34.376Z,57.89
2018-03-20T10:04:37.765Z,57.45
2018-03-20T10:05:41.315Z,57.38
2018-03-20T10:06:44.693Z,57.38
2018-03-20T10:07:48.101Z,57.13
2018-03-20T10:08:51.437Z,56.85
2018-03-20T10:09:55.510Z,56.70
2018-03-20T10:10:59.885Z,55.81
2018-03-20T10:12:03.236Z,55.03
2018-03-20T10:13:06.660Z,54.33
2018-03-20T10:14:10.059Z,54.07
2018-03-20T10:15:13.534Z,53.96
2018-03-20T10:16:17.076Z,53.96
2018-03-20T10:17:20.484Z,53.66
2018-03-20T10:18:28.807Z,53.53
2018-03-20T10:19:32.404Z,53.38
2018-03-20T10:20:37.432Z,53.25
2018-03-20T10:21:40.762Z,53.26
2018-03-20T10:22:44.104Z,53.14
2018-03-20T10:23:47.466Z,52.91
2018-03-20T10:24:50.825Z,52.57
2018-03-20T10:25:54.252Z,52.06
2018-03-20T10:26:57.591Z,51.96
2018-03-20T10:28:00.935Z,52.03
2018-03-20T10:29:04.284Z,52.14
2018-03-20T10:30:07.668Z,52.23
2018-03-20T10:31:11.236Z,52.30
2018-03-20T10:32:14.617Z,52.31
2018-03-20T10:33:17.926Z,52.24
2018-03-20T10:34:21.347Z,52.13
2018-03-20T10:35:24.770Z,51.86
2018-03-20T10:36:28.138Z,51.66
2018-03-20T10:37:31.440Z,51.55
2018-03-20T10:38:34.766Z,51.13
2018-03-20T10:39:38.085Z,50.76
2018-03-20T10:40:41.393Z,50.48
2018-03-20T10:41:44.758Z,50.29
2018-03-20T10:42:48.044Z,49.98
2018-03-20T10:43:53.027Z,49.75
2018-03-20T10:44:56.313Z,49.62
2018-03-20T10:45:59.694Z,49.60
2018-03-20T10:47:03.768Z,49.40
2018-03-20T10:48:07.117Z,49.24
2018-03-20T10:49:10.557Z,49.09
2018-03-20T10:50:13.878Z,48.89
2018-03-20T10:51:17.241Z,48.59
2018-03-20T10:52:20.605Z,48.15
2018-03-20T10:53:24.041Z,47.96
2018-03-20T10:54:27.422Z,47.63
2018-03-20T10:55:30.709Z,47.49
2018-03-20T10:56:34.018Z,47.13
2018-03-20T10:57:37.386Z,46.87
2018-03-20T10:58:40.668Z,46.79
2018-03-20T10:59:44.074Z,46.69
2018-03-20T11:00:50.235Z,46.55
2018-03-20T11:01:53.528Z,46.37
2018-03-20T11:02:57.016Z,46.05
2018-03-20T11:04:00.297Z,45.79
2018-03-20T11:05:03.613Z,45.76
2018-03-20T11:06:06.967Z,45.44
2018-03-20T11:07:10.347Z,45.43
2018-03-20T11:08:13.769Z,45.47
2018-03-20T11:09:17.082Z,45.51
2018-03-20T11:10:20.381Z,45.36
2018-03-20T11:11:24.564Z,45.17
2018-03-20T11:12:27.929Z,45.09
2018-03-20T11:13:31.239Z,44.92
2018-03-20T11:14:34.600Z,44.80
2018-03-20T11:15:37.964Z,44.78
2018-03-20T11:16:41.326Z,44.69
2018-03-20T11:17:44.660Z,44.58
2018-03-20T11:18:48.702Z,44.67
2018-03-20T11:19:52.070Z,44.67
2018-03-20T11:20:55.436Z,44.51
2018-03-20T11:21:59.331Z,44.46
2018-03-20T11:23:02.720Z,44.40
2018-03-20T11:24:06.125Z,44.12
2018-03-20T11:25:09.428Z,43.74
2018-03-20T11:26:12.747Z,43.52
2018-03-20T11:27:16.127Z,43.27
2018-03-20T11:28:19.442Z,42.97
2018-03-20T11:29:22.789Z,42.90
2018-03-20T11:30:26.141Z,42.31
2018-03-20T11:31:29.445Z,42.10
2018-03-20T11:32:32.785Z,42.04
2018-03-20T11:33:36.131Z,42.03
2018-03-20T11:34:39.518Z,41.89
2018-03-20T11:35:42.844Z,41.83
2018-03-20T11:36:46.156Z,41.69
2018-03-20T11:37:49.471Z,41.74
2018-03-20T11:38:52.787Z,41.62
2018-03-20T11:39:56.134Z,41.43
2018-03-20T11:40:59.460Z,41.36
2018-03-20T11:42:02.786Z,41.35
2018-03-20T11:43:06.129Z,41.17
2018-03-20T11:44:09.460Z,40.86
2018-03-20T11:45:12.800Z,40.67
2018-03-20T11:46:16.283Z,40.01
2018-03-20T11:47:19.588Z,39.18
2018-03-20T11:48:22.896Z,39.15
2018-03-20T11:49:26.301Z,38.95
2018-03-20T11:50:29.623Z,38.93
2018-03-20T11:51:32.943Z,38.68
2018-03-20T11:52:36.287Z,38.59
2018-03-20T11:53:39.656Z,38.62
2018-03-20T11:54:42.949Z,38.59
2018-03-20T11:55:46.411Z,38.57
2018-03-20T11:56:49.705Z,38.32
2018-03-20T11:57:53.054Z,38.12
2018-03-20T11:58:56.382Z,37.67
2018-03-20T11:59:59.725Z,37.47
2018-03-20T12:01:03.087Z,37.43
2018-03-20T12:02:07.446Z,37.24
2018-03-20T12:03:10.703Z,36.95
2018-03-20T12:04:14.067Z,36.69
2018-03-20T12:05:17.360Z,36.22
2018-03-20T12:06:20.722Z,36.07
2018-03-20T12:07:24.124Z,36.09
2018-03-20T12:08:39.306Z,36.12
2018-03-20T12:09:48.783Z,35.80
2018-03-20T12:10:52.082Z,35.51
2018-03-20T12:11:57.433Z,35.48
2018-03-20T12:13:00.859Z,35.17
2018-03-20T12:14:04.896Z,35.09
2018-03-20T12:15:11.082Z,35.17
2018-03-20T12:16:14.380Z,35.39
2018-03-20T12:17:19.041Z,35.30
2018-03-20T12:18:22.379Z,35.11
2018-03-20T12:19:25.836Z,34.72
2018-03-20T12:20:29.206Z,34.48
2018-03-20T12:21:32.599Z,34.44
2018-03-20T12:22:36.030Z,34.57
2018-03-20T12:23:40.328Z,34.35
2018-03-20T12:24:45.186Z,34.08
2018-03-20T12:25:49.496Z,33.54
2018-03-20T12:26:52.837Z,33.13
2018-03-20T12:27:56.196Z,32.71
2018-03-20T12:28:59.492Z,32.80
2018-03-20T12:30:02.906Z,32.64
2018-03-20T12:31:06.212Z,32.53
2018-03-20T12:32:09.587Z,32.60
2018-03-20T12:33:13.022Z,32.72
2018-03-20T12:34:16.412Z,32.88
2018-03-20T12:35:19.706Z,32.93
2018-03-20T12:36:23.049Z,32.90
2018-03-20T12:37:26.400Z,32.29
2018-03-20T12:38:29.809Z,31.84
2018-03-20T12:39:33.134Z,31.86
2018-03-20T12:40:36.504Z,31.98
2018-03-20T12:41:39.799Z,32.13
2018-03-20T12:42:43.132Z,32.13
2018-03-20T12:43:46.468Z,32.00
2018-03-20T12:44:49.782Z,32.09
2018-03-20T12:45:53.198Z,32.11
2018-03-20T12:46:56.585Z,32.09
2018-03-20T12:47:59.930Z,32.07
2018-03-20T12:49:03.332Z,31.83
2018-03-20T12:50:07.396Z,31.71
2018-03-20T12:51:10.711Z,31.48
2018-03-20T12:52:14.060Z,31.16
2018-03-20T12:53:17.416Z,30.78
2018-03-20T12:54:20.748Z,30.30
2018-03-20T12:55:24.122Z,30.20
2018-03-20T12:56:27.428Z,30.00
2018-03-20T12:57:30.810Z,29.58
2018-03-20T12:58:34.123Z,29.65
2018-03-20T12:59:37.495Z,29.91
2018-03-20T13:00:40.802Z,30.13
2018-03-20T13:01:44.108Z,30.35
2018-03-20T13:02:47.420Z,30.49
2018-03-20T13:03:50.758Z,30.58
2018-03-20T13:04:54.109Z,30.44
2018-03-20T13:05:57.472Z,30.47
2018-03-20T13:07:00.849Z,30.57
2018-03-20T13:08:04.299Z,30.52
2018-03-20T13:09:07.694Z,30.50
2018-03-20T13:10:11.166Z,30.27
2018-03-20T13:11:14.503Z,30.14
2018-03-20T13:12:19.605Z,30.03
2018-03-20T13:13:22.956Z,29.97
2018-03-20T13:14:26.306Z,29.76
2018-03-20T13:15:29.726Z,29.68
2018-03-20T13:16:33.110Z,29.74
2018-03-20T13:17:36.466Z,29.76
2018-03-20T13:18:39.764Z,29.81
2018-03-20T13:19:43.273Z,29.67
2018-03-20T13:20:46.589Z,29.74
2018-03-20T13:21:49.995Z,29.59
2018-03-20T13:22:54.802Z,29.47
2018-03-20T13:23:58.803Z,29.50
2018-03-20T13:25:02.151Z,29.49
2018-03-20T13:26:05.490Z,29.51
2018-03-20T13:27:09.038Z,29.63
2018-03-20T13:28:12.550Z,29.63
2018-03-20T13:29:15.874Z,29.36
2018-03-20T13:30:19.181Z,29.25
2018-03-20T13:31:22.512Z,29.21
2018-03-20T13:32:26.072Z,29.22
2018-03-20T13:33:29.361Z,29.39
2018-03-20T13:34:32.720Z,29.61
2018-03-20T13:35:36.060Z,29.83
2018-03-20T13:36:39.395Z,29.93
2018-03-20T13:37:42.764Z,30.08
2018-03-20T13:38:46.075Z,30.19
2018-03-20T13:39:49.377Z,30.16
2018-03-20T13:40:52.713Z,30.07
2018-03-20T13:41:56.131Z,29.72